Time;durP1;ratioP1;P1;durP2;ratioP2;P2;SDS_P1;SDS_P2;PMS_P1;PMS_P2;Temp;Humidity;BMP_temperature;BMP_pressure;BME280_temperature;BME280_humidity;BME280_pressure;Samples;Min_cycle;Max_cycle;Signal;HPM_P1;HPM_P2
2023/08/11 00:00:42;;;;;;;4.30;4.00;;;13.90;99.90;;;;;;5087313;28;20477;-65
2023/08/11 00:03:09;;;;;;;9.00;5.60;;;13.90;99.90;;;;;;5087427;28;21045;-65
2023/08/11 00:05:37;;;;;;;4.63;4.23;;;13.90;99.90;;;;;;5087685;28;21077;-65
2023/08/11 00:08:05;;;;;;;4.70;4.40;;;13.90;99.90;;;;;;5086855;28;20450;-66
2023/08/11 00:10:32;;;;;;;5.43;3.83;;;13.90;99.90;;;;;;5087324;28;20466;-65
2023/08/11 00:13:01;;;;;;;4.77;4.47;;;13.80;99.90;;;;;;5087412;28;20537;-65
2023/08/11 00:15:30;;;;;;;4.60;4.30;;;13.80;99.90;;;;;;5087729;28;20446;-66
2023/08/11 00:18:00;;;;;;;4.53;4.23;;;13.80;99.90;;;;;;5087404;28;20451;-65
2023/08/11 00:20:27;;;;;;;5.23;4.83;;;13.80;99.90;;;;;;5088093;28;20470;-66
2023/08/11 00:22:54;;;;;;;5.40;5.00;;;13.70;99.90;;;;;;5087800;28;20451;-65
2023/08/11 00:25:22;;;;;;;4.90;4.50;;;13.70;99.90;;;;;;5088091;28;20454;-65
2023/08/11 00:27:49;;;;;;;4.30;4.00;;;13.70;99.90;;;;;;5087285;28;20453;-65
2023/08/11 00:30:18;;;;;;;4.13;3.77;;;13.70;99.90;;;;;;5087743;28;20569;-65
2023/08/11 00:32:45;;;;;;;4.57;4.20;;;13.60;99.90;;;;;;5087561;28;21689;-65
2023/08/11 00:35:12;;;;;;;5.97;4.30;;;13.60;99.90;;;;;;5087780;28;20492;-65
2023/08/11 00:37:39;;;;;;;5.17;4.67;;;13.60;99.90;;;;;;5087552;28;20468;-66
2023/08/11 00:40:08;;;;;;;4.87;4.47;;;13.50;99.90;;;;;;5087772;28;20450;-65
2023/08/11 00:42:35;;;;;;;4.53;4.23;;;13.50;99.90;;;;;;5087891;28;20511;-65
2023/08/11 00:45:03;;;;;;;4.83;4.43;;;13.50;99.90;;;;;;5087733;28;20443;-66
2023/08/11 00:47:32;;;;;;;4.63;3.90;;;13.50;99.90;;;;;;5085907;28;21128;-66
2023/08/11 00:49:59;;;;;;;4.73;4.40;;;13.50;99.90;;;;;;5087847;28;20803;-65
2023/08/11 00:52:27;;;;;;;4.63;4.23;;;13.50;99.90;;;;;;5087779;28;20506;-65
2023/08/11 00:54:54;;;;;;;4.87;4.57;;;13.40;99.90;;;;;;5087373;28;20916;-65
2023/08/11 00:57:21;;;;;;;4.83;4.43;;;13.50;99.90;;;;;;5087074;28;20550;-65
2023/08/11 00:59:48;;;;;;;5.60;4.40;;;13.40;99.90;;;;;;5087853;28;20454;-65
2023/08/11 01:02:15;;;;;;;5.27;4.87;;;13.40;99.90;;;;;;5087697;28;20553;-65
2023/08/11 01:04:43;;;;;;;5.40;4.90;;;13.40;99.90;;;;;;5087862;28;20525;-65
2023/08/11 01:07:17;;;;;;;4.17;3.87;;;13.30;99.90;;;;;;5087138;28;20530;-65
2023/08/11 01:09:49;;;;;;;4.90;4.47;;;13.30;99.90;;;;;;5098798;22;20494;-63
2023/08/11 01:12:25;;;;;;;4.80;4.50;;;13.30;99.90;;;;;;5067633;28;20443;-63
2023/08/11 01:15:00;;;;;;;4.10;3.90;;;13.30;99.90;;;;;;5067390;28;20510;-63
2023/08/11 01:17:28;;;;;;;4.97;4.53;;;13.30;99.90;;;;;;5067081;28;20885;-63
2023/08/11 01:19:57;;;;;;;6.33;5.20;;;13.30;99.90;;;;;;5067415;28;20554;-63
2023/08/11 01:22:29;;;;;;;5.20;4.70;;;13.20;99.90;;;;;;5067624;28;20505;-62
2023/08/11 01:24:57;;;;;;;4.70;4.37;;;13.20;99.90;;;;;;5067546;28;20533;-63
2023/08/11 01:27:24;;;;;;;4.87;4.47;;;13.20;99.90;;;;;;5059111;28;20526;-63
2023/08/11 01:29:51;;;;;;;4.60;4.20;;;13.20;99.90;;;;;;5051110;28;20579;-63
2023/08/11 01:32:18;;;;;;;4.90;4.53;;;13.20;99.90;;;;;;5051213;28;20461;-63
2023/08/11 01:34:46;;;;;;;5.00;4.60;;;13.20;99.90;;;;;;5050994;28;21097;-62
2023/08/11 01:37:13;;;;;;;4.50;4.10;;;13.10;99.90;;;;;;5050239;28;20535;-63
2023/08/11 01:39:40;;;;;;;6.33;5.30;;;13.10;99.90;;;;;;5050766;28;20471;-63
2023/08/11 01:42:08;;;;;;;4.53;4.23;;;13.10;99.90;;;;;;5054657;28;21026;-63
2023/08/11 01:44:35;;;;;;;5.63;4.97;;;13.00;99.90;;;;;;5069755;28;20443;-63
2023/08/11 01:47:04;;;;;;;5.07;4.70;;;13.00;99.90;;;;;;5050108;28;20480;-63
2023/08/11 01:49:31;;;;;;;4.50;4.10;;;13.00;99.90;;;;;;5049555;28;20899;-63
2023/08/11 01:51:58;;;;;;;4.80;4.40;;;13.00;99.90;;;;;;5050915;28;20821;-63
2023/08/11 01:54:25;;;;;;;4.90;4.13;;;13.00;99.90;;;;;;5050755;28;20582;-63
2023/08/11 01:56:53;;;;;;;5.03;4.40;;;13.00;99.90;;;;;;5050253;28;20502;-63
2023/08/11 01:59:21;;;;;;;4.10;3.80;;;12.90;99.90;;;;;;5050448;28;20555;-63
2023/08/11 02:01:48;;;;;;;5.50;5.00;;;12.90;99.90;;;;;;5050508;28;20535;-63
2023/08/11 02:04:15;;;;;;;5.30;4.80;;;12.90;99.90;;;;;;5050266;28;20452;-63
2023/08/11 02:06:41;;;;;;;4.77;4.47;;;12.90;99.90;;;;;;5049812;28;20452;-63
2023/08/11 02:09:09;;;;;;;5.13;4.73;;;12.90;99.90;;;;;;5050368;28;20480;-63
2023/08/11 02:11:37;;;;;;;5.50;4.93;;;12.90;99.90;;;;;;5050396;28;20504;-63
2023/08/11 02:14:04;;;;;;;4.77;4.40;;;12.90;99.90;;;;;;5050329;28;20488;-63
2023/08/11 02:16:33;;;;;;;4.60;4.20;;;12.80;99.90;;;;;;5049664;28;21077;-63
2023/08/11 02:19:00;;;;;;;4.87;4.57;;;12.80;99.90;;;;;;5050264;28;20476;-63
2023/08/11 02:21:28;;;;;;;8.13;4.57;;;12.80;99.90;;;;;;5050670;28;20447;-63
2023/08/11 02:23:55;;;;;;;5.03;4.53;;;12.80;99.90;;;;;;5050427;28;20539;-63
2023/08/11 02:26:22;;;;;;;4.73;4.03;;;12.80;99.90;;;;;;5049399;28;20453;-63
2023/08/11 02:28:49;;;;;;;5.20;4.87;;;12.70;99.90;;;;;;5050173;28;20476;-63
2023/08/11 02:31:17;;;;;;;4.90;4.50;;;12.70;99.90;;;;;;5050128;28;20452;-63
2023/08/11 02:33:46;;;;;;;5.23;4.83;;;12.70;99.90;;;;;;5049898;28;20452;-63
2023/08/11 02:36:13;;;;;;;4.40;4.10;;;12.70;99.90;;;;;;5049152;28;20510;-63
2023/08/11 02:38:41;;;;;;;3.83;3.53;;;12.70;99.90;;;;;;5065781;28;20471;-63
2023/08/11 02:41:07;;;;;;;4.63;4.30;;;12.70;99.90;;;;;;5055981;28;20538;-63
2023/08/11 02:43:36;;;;;;;4.10;3.90;;;12.70;99.90;;;;;;5050105;28;20483;-63
2023/08/11 02:46:05;;;;;;;5.33;4.93;;;12.60;99.90;;;;;;5049257;28;20509;-63
2023/08/11 02:48:34;;;;;;;5.20;4.80;;;12.60;99.90;;;;;;5048656;28;20810;-64
2023/08/11 02:51:02;;;;;;;4.93;4.53;;;12.60;99.90;;;;;;5049566;28;21027;-63
2023/08/11 02:53:29;;;;;;;4.47;4.17;;;12.50;99.90;;;;;;5049351;28;20455;-63
2023/08/11 02:55:56;;;;;;;5.13;4.73;;;12.60;99.90;;;;;;5048622;28;20496;-64
2023/08/11 02:58:23;;;;;;;4.97;4.57;;;12.50;99.90;;;;;;5055276;28;20542;-62
2023/08/11 03:00:50;;;;;;;4.70;4.30;;;12.50;99.90;;;;;;5068794;28;20451;-63
2023/08/11 03:03:17;;;;;;;4.27;3.97;;;12.50;99.90;;;;;;5055287;28;21157;-63
2023/08/11 03:05:44;;;;;;;5.43;4.63;;;12.50;99.90;;;;;;5067014;28;20447;-63
2023/08/11 03:08:12;;;;;;;5.27;4.87;;;12.40;99.90;;;;;;5048714;28;20476;-63
2023/08/11 03:10:39;;;;;;;4.90;4.50;;;12.40;99.90;;;;;;5049064;28;20558;-63
2023/08/11 03:13:06;;;;;;;5.10;4.70;;;12.40;99.90;;;;;;5049224;28;20452;-63
2023/08/11 03:15:34;;;;;;;4.87;4.47;;;12.40;99.90;;;;;;5049100;28;20492;-63
2023/08/11 03:18:01;;;;;;;5.10;4.70;;;12.40;99.90;;;;;;5048386;28;20529;-63
2023/08/11 03:20:28;;;;;;;5.00;4.60;;;12.40;99.90;;;;;;5048951;28;20472;-63
2023/08/11 03:22:54;;;;;;;5.27;4.87;;;12.40;99.90;;;;;;5048914;28;20833;-63
2023/08/11 03:25:23;;;;;;;4.97;4.57;;;12.30;99.90;;;;;;5049082;28;20451;-63
2023/08/11 03:27:50;;;;;;;6.70;4.57;;;12.30;99.90;;;;;;5048399;28;20817;-63
2023/08/11 03:30:17;;;;;;;4.90;4.13;;;12.30;99.90;;;;;;5048784;28;20476;-63
2023/08/11 03:32:44;;;;;;;5.17;4.60;;;12.30;99.90;;;;;;5048773;28;20538;-62
2023/08/11 03:35:11;;;;;;;5.10;4.80;;;12.30;99.90;;;;;;5048801;28;20476;-63
2023/08/11 03:37:38;;;;;;;5.67;5.17;;;12.30;99.90;;;;;;5045465;28;20630;-63
2023/08/11 03:40:09;;;;;;;4.93;4.20;;;12.30;99.90;;;;;;5048608;28;20551;-63
2023/08/11 03:42:37;;;;;;;4.73;4.30;;;12.30;99.90;;;;;;5048652;28;20547;-63
2023/08/11 03:45:04;;;;;;;4.10;3.80;;;12.30;99.90;;;;;;5048689;28;21256;-63
2023/08/11 03:47:31;;;;;;;5.20;4.80;;;12.30;99.90;;;;;;5046633;28;20448;-63
2023/08/11 03:49:58;;;;;;;4.10;3.80;;;12.20;99.90;;;;;;5048336;28;20841;-62
2023/08/11 03:52:25;;;;;;;5.00;4.60;;;12.20;99.90;;;;;;5047939;28;20462;-62
2023/08/11 03:54:52;;;;;;;5.17;4.77;;;12.10;99.90;;;;;;5050672;28;20498;-63
2023/08/11 03:57:19;;;;;;;5.00;4.60;;;12.20;99.90;;;;;;5067216;28;20450;-63
2023/08/11 03:59:47;;;;;;;4.50;4.20;;;12.10;99.90;;;;;;5068374;28;21327;-63
2023/08/11 04:02:14;;;;;;;5.20;4.47;;;12.10;99.90;;;;;;5068235;28;20436;-63
2023/08/11 04:04:41;;;;;;;5.27;4.87;;;12.10;99.90;;;;;;5068853;28;21203;-63
2023/08/11 04:07:07;;;;;;;5.13;4.80;;;12.10;99.90;;;;;;5067517;28;21085;-63
2023/08/11 04:09:34;;;;;;;5.77;4.37;;;12.10;99.90;;;;;;5068073;28;20489;-63
2023/08/11 04:12:01;;;;;;;7.30;5.37;;;12.10;99.90;;;;;;5066324;28;20473;-64
2023/08/11 04:14:28;;;;;;;5.10;4.60;;;12.10;99.90;;;;;;5067269;28;20921;-63
2023/08/11 04:16:56;;;;;;;5.63;5.10;;;12.10;99.90;;;;;;5066823;28;21108;-63
2023/08/11 04:19:23;;;;;;;5.40;4.97;;;12.10;99.90;;;;;;5060224;28;20466;-63
2023/08/11 04:21:50;;;;;;;5.43;5.03;;;12.10;99.90;;;;;;5066940;28;20893;-63
2023/08/11 04:24:17;;;;;;;5.50;4.90;;;12.10;99.90;;;;;;5067521;28;20451;-63
2023/08/11 04:26:44;;;;;;;5.47;4.97;;;12.00;99.90;;;;;;5066774;28;20461;-63
2023/08/11 04:29:12;;;;;;;5.63;5.23;;;12.00;99.90;;;;;;5068209;28;20502;-63
2023/08/11 04:31:40;;;;;;;4.37;3.97;;;12.00;99.90;;;;;;5066435;28;20464;-63
2023/08/11 04:34:10;;;;;;;5.27;4.87;;;12.00;99.90;;;;;;5068212;28;20484;-63
2023/08/11 04:36:37;;;;;;;5.10;4.70;;;12.00;99.90;;;;;;5067272;28;20503;-63
2023/08/11 04:39:05;;;;;;;5.50;5.10;;;12.00;99.90;;;;;;5067984;28;20489;-63
2023/08/11 04:41:32;;;;;;;5.20;4.83;;;12.00;99.90;;;;;;5068012;28;20927;-63
2023/08/11 04:43:59;;;;;;;5.23;4.83;;;12.00;99.90;;;;;;5067866;28;20970;-63
2023/08/11 04:46:26;;;;;;;4.87;4.40;;;12.00;99.90;;;;;;5067024;28;20851;-63
2023/08/11 04:48:53;;;;;;;5.40;5.00;;;12.00;99.90;;;;;;5067543;28;20469;-63
2023/08/11 04:51:21;;;;;;;6.03;5.43;;;12.00;99.90;;;;;;5067746;28;20443;-63
2023/08/11 04:53:49;;;;;;;6.37;5.90;;;12.00;99.90;;;;;;5067627;28;20482;-63
2023/08/11 04:56:16;;;;;;;5.83;4.93;;;12.10;99.90;;;;;;5066975;28;20529;-63
2023/08/11 04:58:43;;;;;;;4.70;4.27;;;12.10;99.90;;;;;;5067893;28;20550;-63
2023/08/11 05:01:09;;;;;;;5.30;4.80;;;12.10;99.90;;;;;;5067779;28;20461;-63
2023/08/11 05:03:37;;;;;;;5.03;4.50;;;12.10;99.90;;;;;;5071339;28;20534;-63
2023/08/11 05:06:04;;;;;;;5.70;5.20;;;12.10;99.90;;;;;;5070755;28;20450;-63
2023/08/11 05:08:32;;;;;;;6.27;5.77;;;12.10;99.90;;;;;;5071178;28;20882;-63
2023/08/11 05:10:59;;;;;;;5.20;4.90;;;12.20;99.90;;;;;;5071352;28;20524;-63
2023/08/11 05:13:26;;;;;;;5.03;4.63;;;12.10;99.90;;;;;;5071134;28;20455;-63
2023/08/11 05:15:53;;;;;;;5.20;4.80;;;12.20;99.90;;;;;;5070865;28;20857;-64
2023/08/11 05:18:19;;;;;;;8.80;6.07;;;12.20;99.90;;;;;;5070814;28;20450;-63
2023/08/11 05:20:47;;;;;;;6.40;5.80;;;12.20;99.90;;;;;;5071094;28;20609;-63
2023/08/11 05:23:14;;;;;;;5.13;4.73;;;12.20;99.90;;;;;;5071133;28;20464;-63
2023/08/11 05:25:42;;;;;;;5.97;5.40;;;12.30;99.90;;;;;;5071026;28;20828;-63
2023/08/11 05:28:09;;;;;;;5.33;4.90;;;12.30;99.90;;;;;;5070553;28;20550;-63
2023/08/11 05:30:37;;;;;;;5.00;4.70;;;12.30;99.90;;;;;;5069610;28;20492;-63
2023/08/11 05:33:04;;;;;;;5.70;5.40;;;12.30;99.90;;;;;;5071060;28;20512;-63
2023/08/11 05:35:31;;;;;;;6.73;6.13;;;12.40;99.90;;;;;;5070852;28;20483;-63
2023/08/11 05:37:59;;;;;;;6.10;5.60;;;12.40;99.90;;;;;;5070163;28;20934;-63
2023/08/11 05:40:26;;;;;;;5.70;5.23;;;12.50;99.90;;;;;;5071003;28;20471;-63
2023/08/11 05:42:54;;;;;;;6.27;5.80;;;12.60;99.90;;;;;;5070957;28;20462;-63
2023/08/11 05:45:21;;;;;;;5.23;4.90;;;12.70;99.90;;;;;;5070751;28;20539;-63
2023/08/11 05:47:47;;;;;;;5.83;5.37;;;12.70;99.90;;;;;;5069812;28;20462;-63
2023/08/11 05:50:14;;;;;;;5.23;4.90;;;12.90;99.90;;;;;;5070680;28;20494;-63
2023/08/11 05:52:41;;;;;;;5.73;5.33;;;13.10;99.90;;;;;;5070972;28;20558;-63
2023/08/11 05:55:09;;;;;;;8.93;7.40;;;13.20;99.90;;;;;;5071127;28;20486;-63
2023/08/11 05:57:35;;;;;;;5.53;5.13;;;13.40;99.90;;;;;;5070036;28;20448;-63
2023/08/11 06:00:05;;;;;;;6.03;5.53;;;13.60;99.90;;;;;;5070547;28;20862;-63
2023/08/11 06:02:32;;;;;;;5.27;4.87;;;13.80;99.90;;;;;;5070505;28;20861;-63
2023/08/11 06:04:59;;;;;;;5.50;5.07;;;14.00;99.90;;;;;;5070326;28;20465;-63
2023/08/11 06:07:25;;;;;;;5.33;4.80;;;14.20;99.90;;;;;;5069427;28;20467;-63
2023/08/11 06:09:52;;;;;;;5.47;5.07;;;14.40;99.90;;;;;;5070381;28;20482;-63
2023/08/11 06:12:19;;;;;;;5.30;4.80;;;14.60;99.90;;;;;;5070547;28;20889;-63
2023/08/11 06:14:46;;;;;;;5.97;5.50;;;14.80;99.90;;;;;;5069646;28;20495;-63
2023/08/11 06:17:14;;;;;;;5.80;5.37;;;15.00;99.90;;;;;;5069439;28;20453;-63
2023/08/11 06:19:41;;;;;;;5.93;5.43;;;15.20;99.90;;;;;;5070042;28;20994;-63
2023/08/11 06:22:08;;;;;;;9.17;4.90;;;15.40;99.90;;;;;;5070301;28;20459;-63
2023/08/11 06:24:35;;;;;;;6.77;6.13;;;15.60;99.90;;;;;;5070360;28;20476;-63
2023/08/11 06:27:02;;;;;;;6.63;5.80;;;15.80;99.90;;;;;;5069322;28;20934;-63
2023/08/11 06:29:28;;;;;;;5.80;5.00;;;16.00;99.90;;;;;;5069516;28;21025;-63
2023/08/11 06:31:55;;;;;;;5.37;4.93;;;16.20;99.90;;;;;;5068112;28;20444;-63
2023/08/11 06:34:23;;;;;;;5.70;5.30;;;16.30;99.90;;;;;;5069710;28;20965;-63
2023/08/11 06:36:50;;;;;;;6.70;5.67;;;16.50;99.90;;;;;;5068775;28;20496;-63
2023/08/11 06:39:17;;;;;;;5.83;5.43;;;16.70;99.90;;;;;;5069564;28;20468;-63
2023/08/11 06:41:44;;;;;;;6.53;5.93;;;16.90;99.90;;;;;;5069535;28;20469;-63
2023/08/11 06:44:11;;;;;;;7.13;6.37;;;17.10;99.90;;;;;;5069624;28;20816;-63
2023/08/11 06:46:38;;;;;;;5.83;5.33;;;17.30;99.90;;;;;;5069040;28;20797;-63
2023/08/11 06:49:05;;;;;;;6.97;5.10;;;17.50;99.90;;;;;;5069538;28;20553;-63
2023/08/11 06:51:33;;;;;;;6.23;5.83;;;17.70;99.90;;;;;;5069745;28;20470;-64
2023/08/11 06:54:00;;;;;;;6.23;5.63;;;17.80;99.90;;;;;;5069911;28;20456;-64
2023/08/11 06:56:27;;;;;;;9.53;6.03;;;18.00;99.90;;;;;;5068349;28;20490;-64
2023/08/11 06:58:54;;;;;;;7.70;5.83;;;18.20;99.90;;;;;;5069440;28;20847;-64
2023/08/11 07:01:20;;;;;;;7.20;6.60;;;18.40;99.90;;;;;;5069377;28;20450;-63
2023/08/11 07:03:47;;;;;;;5.50;5.20;;;18.50;99.90;;;;;;5069037;28;20494;-63
2023/08/11 07:06:14;;;;;;;5.93;5.53;;;18.70;99.90;;;;;;5068639;28;20450;-64
2023/08/11 07:08:42;;;;;;;6.77;5.57;;;18.80;99.90;;;;;;5068936;28;20470;-63
2023/08/11 07:11:09;;;;;;;7.00;6.33;;;19.00;99.90;;;;;;5084190;22;20504;-65
2023/08/11 07:13:36;;;;;;;6.67;5.93;;;19.10;99.90;;;;;;5049175;28;20449;-66
2023/08/11 07:16:03;;;;;;;6.23;5.70;;;19.30;99.90;;;;;;5054185;28;20480;-66
2023/08/11 07:18:30;;;;;;;6.20;5.80;;;19.50;99.90;;;;;;5049003;28;20467;-66
2023/08/11 07:20:57;;;;;;;5.90;5.50;;;19.60;99.90;;;;;;5049469;28;20469;-66
2023/08/11 07:23:24;;;;;;;5.70;5.20;;;19.70;99.90;;;;;;5048930;28;20955;-66
2023/08/11 07:25:52;;;;;;;5.47;4.97;;;19.80;99.90;;;;;;5047578;28;20461;-67
2023/08/11 07:28:19;;;;;;;5.93;5.43;;;20.00;99.90;;;;;;5048644;28;20557;-66
2023/08/11 07:30:46;;;;;;;6.20;5.70;;;20.10;99.90;;;;;;5049670;28;21196;-66
2023/08/11 07:33:13;;;;;;;6.97;6.33;;;20.20;99.90;;;;;;5048543;28;20426;-66
2023/08/11 07:35:40;;;;;;;6.47;5.13;;;20.40;99.90;;;;;;5048797;28;20512;-66
2023/08/11 07:38:07;;;;;;;5.80;5.30;;;20.50;99.90;;;;;;5048118;28;20576;-65
2023/08/11 07:40:33;;;;;;;5.33;4.93;;;20.60;99.90;;;;;;5045776;28;20969;-65
2023/08/11 07:43:02;;;;;;;7.50;4.63;;;20.80;99.90;;;;;;5047408;28;20533;-66
2023/08/11 07:45:29;;;;;;;5.00;4.60;;;20.90;99.90;;;;;;5048389;28;20449;-66
2023/08/11 07:47:56;;;;;;;4.67;4.27;;;21.00;99.90;;;;;;5047733;28;20455;-66
2023/08/11 07:50:23;;;;;;;4.83;4.40;;;21.10;99.90;;;;;;5048325;28;20557;-66
2023/08/11 07:52:49;;;;;;;4.90;4.50;;;21.30;99.90;;;;;;5048639;28;20446;-66
2023/08/11 07:55:16;;;;;;;4.57;4.17;;;21.40;99.90;;;;;;5048449;28;20968;-66
2023/08/11 07:57:43;;;;;;;4.80;4.20;;;21.50;99.90;;;;;;5047545;28;20537;-66
2023/08/11 08:00:16;;;;;;;5.33;4.70;;;21.60;99.90;;;;;;5053921;28;20472;-66
2023/08/11 08:02:44;;;;;;;4.77;4.47;;;21.70;99.90;;;;;;5046814;28;20486;-67
2023/08/11 08:05:11;;;;;;;5.03;4.63;;;21.80;99.90;;;;;;5047715;28;20451;-66
2023/08/11 08:07:38;;;;;;;5.27;4.87;;;21.80;99.90;;;;;;5047268;28;20452;-66
2023/08/11 08:10:08;;;;;;;6.07;4.93;;;22.00;99.90;;;;;;5047661;28;20476;-66
2023/08/11 08:12:36;;;;;;;6.23;4.67;;;22.00;99.90;;;;;;5047284;28;20479;-66
2023/08/11 08:15:04;;;;;;;6.60;6.10;;;22.10;99.90;;;;;;5047291;28;20491;-66
2023/08/11 08:17:33;;;;;;;6.27;5.67;;;22.10;99.90;;;;;;5047179;28;20581;-67
2023/08/11 08:20:00;;;;;;;4.53;4.27;;;22.20;99.90;;;;;;5046711;28;20566;-66
2023/08/11 08:22:27;;;;;;;6.03;5.10;;;22.30;99.90;;;;;;5046401;28;20974;-66
2023/08/11 08:24:54;;;;;;;5.17;4.80;;;22.30;99.90;;;;;;5048567;28;20486;-65
2023/08/11 08:27:24;;;;;;;5.47;4.80;;;22.40;99.90;;;;;;5046861;28;20455;-66
2023/08/11 08:29:52;;;;;;;5.10;4.70;;;22.40;99.90;;;;;;5047727;28;20485;-67
2023/08/11 08:32:19;;;;;;;4.53;4.17;;;22.50;99.90;;;;;;5047430;28;20451;-65
2023/08/11 08:34:49;;;;;;;7.40;4.50;;;22.50;99.90;;;;;;5044874;28;21172;-65
2023/08/11 08:37:17;;;;;;;7.90;4.83;;;22.50;99.90;;;;;;5046844;28;21011;-65
2023/08/11 08:39:44;;;;;;;5.60;5.10;;;22.60;99.90;;;;;;5049901;28;20486;-65
2023/08/11 08:42:13;;;;;;;4.47;4.17;;;22.60;99.90;;;;;;5051190;28;20459;-66
2023/08/11 08:44:41;;;;;;;4.73;4.37;;;22.70;99.90;;;;;;5051333;28;20454;-66
2023/08/11 08:47:09;;;;;;;5.07;4.63;;;22.80;99.90;;;;;;5054801;28;20459;-65
2023/08/11 08:49:37;;;;;;;6.30;4.47;;;22.80;99.90;;;;;;5053333;28;20531;-66
2023/08/11 08:52:06;;;;;;;4.23;3.87;;;22.90;99.90;;;;;;5057408;28;20869;-66
2023/08/11 08:54:33;;;;;;;4.27;3.97;;;22.90;99.90;;;;;;5050724;28;20546;-66
2023/08/11 08:57:02;;;;;;;4.23;3.83;;;23.00;99.90;;;;;;5049963;28;20498;-66
2023/08/11 08:59:29;;;;;;;3.43;3.20;;;23.10;99.90;;;;;;5051106;28;20452;-65
2023/08/11 09:01:58;;;;;;;4.47;4.10;;;23.20;99.90;;;;;;5049414;28;20460;-66
2023/08/11 09:04:26;;;;;;;4.80;4.20;;;23.40;99.90;;;;;;5048548;28;21109;-65
2023/08/11 09:06:54;;;;;;;4.67;4.37;;;23.50;99.90;;;;;;5049358;28;20440;-65
2023/08/11 09:09:23;;;;;;;4.90;3.80;;;23.70;99.90;;;;;;5050568;28;20440;-66
2023/08/11 09:11:50;;;;;;;4.83;4.17;;;23.70;99.90;;;;;;5050199;28;20949;-65
2023/08/11 09:14:20;;;;;;;4.13;3.80;;;23.90;99.90;;;;;;5050755;28;20472;-66
2023/08/11 09:16:47;;;;;;;3.97;3.67;;;23.90;99.90;;;;;;5049613;28;20484;-66
2023/08/11 09:19:14;;;;;;;3.83;3.63;;;24.10;99.80;;;;;;5050476;28;20458;-65
2023/08/11 09:21:43;;;;;;;4.70;3.30;;;24.10;97.40;;;;;;5050440;28;20457;-65
2023/08/11 09:24:11;;;;;;;3.87;3.10;;;24.30;96.30;;;;;;5050456;28;20448;-66
2023/08/11 09:26:42;;;;;;;3.40;3.10;;;24.30;96.10;;;;;;5049178;28;20449;-66
2023/08/11 09:29:10;;;;;;;3.60;3.30;;;24.40;96.60;;;;;;5048244;28;20445;-66
2023/08/11 09:31:38;;;;;;;3.93;3.53;;;24.50;97.20;;;;;;5048969;28;20583;-66
2023/08/11 09:34:13;;;;;;;3.73;3.43;;;24.60;96.90;;;;;;5049718;28;20533;-65
2023/08/11 09:36:41;;;;;;;3.00;2.80;;;24.70;95.00;;;;;;5048020;28;20495;-66
2023/08/11 09:39:08;;;;;;;3.20;3.00;;;24.80;94.80;;;;;;5049472;28;20445;-66
2023/08/11 09:41:42;;;;;;;3.00;2.80;;;24.80;92.50;;;;;;5048862;28;20977;-66
2023/08/11 09:44:10;;;;;;;3.60;2.57;;;24.90;92.10;;;;;;5049911;28;20468;-66
2023/08/11 09:46:38;;;;;;;2.90;2.70;;;24.90;91.70;;;;;;5048063;28;20965;-67
2023/08/11 09:49:05;;;;;;;3.30;3.10;;;24.90;92.20;;;;;;5046310;28;20848;-66
2023/08/11 09:51:34;;;;;;;4.57;2.77;;;25.00;91.60;;;;;;5048939;28;20465;-66
2023/08/11 09:54:04;;;;;;;3.07;2.47;;;25.10;92.30;;;;;;5049194;28;20453;-66
2023/08/11 09:56:34;;;;;;;3.20;3.00;;;25.10;91.00;;;;;;5048329;28;21012;-66
2023/08/11 09:59:05;;;;;;;2.53;2.43;;;25.10;91.00;;;;;;5037009;28;20460;-66
2023/08/11 10:01:35;;;;;;;2.90;2.60;;;25.20;91.40;;;;;;5049464;28;20482;-66
2023/08/11 10:04:10;;;;;;;2.83;2.70;;;25.30;91.60;;;;;;5049285;28;20452;-66
2023/08/11 10:06:39;;;;;;;2.80;2.60;;;25.40;92.30;;;;;;5048011;28;20445;-66
2023/08/11 10:09:12;;;;;;;3.50;2.90;;;25.40;91.80;;;;;;5048998;28;20446;-66
2023/08/11 10:11:41;;;;;;;2.90;2.70;;;25.40;92.30;;;;;;5049096;28;20528;-66
2023/08/11 10:14:14;;;;;;;3.53;3.33;;;25.50;92.10;;;;;;5049335;28;20447;-65
2023/08/11 10:16:42;;;;;;;3.23;2.97;;;25.50;91.30;;;;;;5047954;28;20493;-66
2023/08/11 10:19:09;;;;;;;3.87;2.93;;;25.60;92.80;;;;;;5048808;28;20570;-65
2023/08/11 10:21:36;;;;;;;2.10;2.00;;;25.70;91.30;;;;;;5048950;28;20479;-66
2023/08/11 10:24:04;;;;;;;2.70;2.50;;;25.70;90.60;;;;;;5049187;28;20452;-66
2023/08/11 10:26:31;;;;;;;5.47;2.90;;;25.70;87.60;;;;;;5048158;28;20454;-66
2023/08/11 10:28:59;;;;;;;2.60;2.37;;;25.80;90.80;;;;;;5032449;28;20509;-66
2023/08/11 10:31:32;;;;;;;2.90;2.70;;;25.70;87.20;;;;;;5048438;28;20988;-66
2023/08/11 10:33:59;;;;;;;2.50;2.30;;;25.80;91.10;;;;;;5049036;28;20484;-66
2023/08/11 10:36:28;;;;;;;3.80;3.03;;;25.80;90.70;;;;;;5047804;28;20485;-66
2023/08/11 10:39:04;;;;;;;2.53;2.33;;;25.80;90.40;;;;;;5048469;28;20451;-66
2023/08/11 10:41:31;;;;;;;3.20;3.00;;;25.90;91.30;;;;;;5048782;28;20470;-66
2023/08/11 10:43:58;;;;;;;3.47;3.03;;;25.90;90.00;;;;;;5048522;28;20538;-66
2023/08/11 10:46:28;;;;;;;3.30;3.10;;;26.00;90.80;;;;;;5047628;28;21072;-66
2023/08/11 10:48:58;;;;;;;3.10;2.90;;;26.00;90.50;;;;;;5048398;28;20447;-66
2023/08/11 10:51:35;;;;;;;3.10;2.83;;;26.10;91.20;;;;;;5048381;28;20463;-66
2023/08/11 10:54:09;;;;;;;2.60;2.43;;;26.20;90.60;;;;;;5048450;28;20903;-66
2023/08/11 10:56:38;;;;;;;3.00;2.60;;;26.20;90.80;;;;;;5047254;28;20483;-67
2023/08/11 10:59:12;;;;;;;3.83;2.60;;;26.30;87.70;;;;;;5048310;28;20535;-66
2023/08/11 11:01:42;;;;;;;2.90;2.70;;;26.30;88.10;;;;;;5047883;28;20474;-65
2023/08/11 11:04:11;;;;;;;3.07;2.77;;;26.40;90.70;;;;;;5048353;28;20454;-66
2023/08/11 11:06:39;;;;;;;2.53;2.43;;;26.50;90.20;;;;;;5047126;28;20441;-66
2023/08/11 11:09:07;;;;;;;2.40;2.20;;;26.60;86.30;;;;;;5047857;28;20448;-66
2023/08/11 11:11:36;;;;;;;2.90;2.67;;;26.60;88.60;;;;;;5048152;28;20476;-66
2023/08/11 11:14:03;;;;;;;3.93;2.10;;;26.70;89.00;;;;;;5047814;28;20448;-67
2023/08/11 11:16:32;;;;;;;2.57;2.37;;;26.70;85.20;;;;;;5050475;28;20463;-66
2023/08/11 11:19:01;;;;;;;2.80;2.60;;;26.80;86.60;;;;;;5044865;28;20455;-67
2023/08/11 11:21:28;;;;;;;2.63;2.43;;;26.80;87.00;;;;;;5051653;28;20483;-66
2023/08/11 11:23:55;;;;;;;2.47;2.20;;;26.90;87.50;;;;;;5047362;28;20451;-67
2023/08/11 11:26:24;;;;;;;2.70;2.50;;;27.00;89.50;;;;;;5046593;28;20574;-66
2023/08/11 11:28:51;;;;;;;2.20;1.90;;;27.00;87.00;;;;;;5045100;28;21051;-66
2023/08/11 11:31:19;;;;;;;2.10;2.00;;;27.00;85.30;;;;;;5052114;28;20554;-66
2023/08/11 11:33:47;;;;;;;2.60;2.40;;;27.10;84.40;;;;;;5050272;28;20960;-66
2023/08/11 11:36:17;;;;;;;1.90;1.80;;;27.20;87.20;;;;;;5048965;28;20456;-67
2023/08/11 11:38:44;;;;;;;3.03;2.30;;;27.30;88.40;;;;;;5050911;28;20583;-67
2023/08/11 11:41:11;;;;;;;2.50;2.30;;;27.30;84.80;;;;;;5052510;28;20477;-66
2023/08/11 11:43:38;;;;;;;2.73;2.60;;;27.40;88.60;;;;;;5051083;28;20455;-67
2023/08/11 11:46:14;;;;;;;3.50;3.20;;;27.50;86.20;;;;;;5053848;28;20464;-66
2023/08/11 11:48:42;;;;;;;3.00;2.23;;;27.50;86.00;;;;;;5048360;28;20459;-67
2023/08/11 11:51:09;;;;;;;2.97;2.77;;;27.50;86.20;;;;;;5052038;28;20473;-67
2023/08/11 11:53:38;;;;;;;3.47;3.17;;;27.60;88.30;;;;;;5049036;28;20467;-66
2023/08/11 11:56:05;;;;;;;2.90;2.70;;;27.70;84.60;;;;;;5044827;28;20459;-67
2023/08/11 11:58:33;;;;;;;2.97;2.80;;;27.70;86.90;;;;;;5050306;28;20496;-67
2023/08/11 12:01:11;;;;;;;2.57;2.47;;;27.80;82.20;;;;;;5052504;28;20507;-67
2023/08/11 12:03:38;;;;;;;2.67;2.50;;;27.90;85.10;;;;;;5051626;28;21225;-67
2023/08/11 12:06:06;;;;;;;3.00;2.80;;;27.90;85.40;;;;;;5044929;28;20460;-67
2023/08/11 12:08:34;;;;;;;2.80;2.70;;;28.00;84.90;;;;;;5045234;28;20465;-67
2023/08/11 12:11:02;;;;;;;2.80;2.70;;;28.20;83.10;;;;;;5059057;28;20868;-67
2023/08/11 12:13:31;;;;;;;3.43;2.50;;;28.20;84.10;;;;;;5050977;28;20961;-67
2023/08/11 12:15:58;;;;;;;2.60;2.40;;;28.30;83.60;;;;;;5052685;28;20449;-67
2023/08/11 12:18:25;;;;;;;2.63;2.43;;;28.40;83.80;;;;;;5047756;28;21037;-67
2023/08/11 12:20:52;;;;;;;2.87;2.67;;;28.40;81.00;;;;;;5047045;28;20475;-67
2023/08/11 12:23:19;;;;;;;2.83;2.43;;;28.40;81.40;;;;;;5051911;28;20508;-67
2023/08/11 12:25:45;;;;;;;3.97;2.40;;;28.50;84.50;;;;;;5045572;28;20451;-68
2023/08/11 12:28:15;;;;;;;3.33;2.43;;;28.70;85.20;;;;;;5045435;28;21058;-67
2023/08/11 12:30:41;;;;;;;2.03;1.93;;;28.90;84.30;;;;;;5051492;28;21031;-68
2023/08/11 12:33:08;;;;;;;3.23;3.03;;;29.10;83.30;;;;;;5053568;28;20454;-66
2023/08/11 12:35:35;;;;;;;2.37;2.20;;;29.20;82.30;;;;;;5052586;28;20447;-67
2023/08/11 12:38:02;;;;;;;2.40;2.30;;;29.40;81.10;;;;;;5043985;28;20494;-67
2023/08/11 12:40:30;;;;;;;2.27;2.13;;;29.60;82.60;;;;;;5049656;28;20470;-66
2023/08/11 12:42:56;;;;;;;2.40;2.30;;;29.60;82.50;;;;;;5046518;28;20539;-67
2023/08/11 12:45:25;;;;;;;4.27;2.30;;;29.70;79.10;;;;;;5046861;28;20450;-67
2023/08/11 12:47:51;;;;;;;3.27;2.97;;;29.60;80.00;;;;;;5045586;28;20528;-67
2023/08/11 12:50:18;;;;;;;3.60;2.47;;;29.70;75.50;;;;;;5047290;28;21263;-67